Time;durP1;ratioP1;P1;durP2;ratioP2;P2;SDS_P1;SDS_P2;PMS_P1;PMS_P2;Temp;Humidity;BMP_temperature;BMP_pressure;BME280_temperature;BME280_humidity;BME280_pressure;Samples;Min_cycle;Max_cycle;Signal;HPM_P1;HPM_P2
2023/11/19 00:02:51;;;;;;;2.47;1.90;;;;;;;;;;5070063;28;20176;-86
2023/11/19 00:05:55;;;;;;;2.73;1.70;;;;;;;;;;5060837;28;20184;-85
2023/11/19 00:09:00;;;;;;;1.77;1.50;;;;;;;;;;5073449;28;20228;-85
2023/11/19 00:12:05;;;;;;;2.43;1.40;;;;;;;;;;5051074;28;20220;-85
2023/11/19 00:15:11;;;;;;;2.60;1.40;;;;;;;;;;5062536;28;20192;-85
2023/11/19 00:18:15;;;;;;;2.27;1.60;;;;;;;;;;5050342;28;20176;-85
2023/11/19 00:21:19;;;;;;;1.57;1.47;;;;;;;;;;5050950;28;20181;-85
2023/11/19 00:24:23;;;;;;;1.97;1.77;;;;;;;;;;5051606;28;20184;-85
2023/11/19 00:27:27;;;;;;;2.10;1.83;;;;;;;;;;5074390;28;20188;-85
2023/11/19 00:30:32;;;;;;;2.40;1.90;;;;;;;;;;5049970;28;20208;-84
2023/11/19 00:33:37;;;;;;;2.70;2.20;;;;;;;;;;5060769;28;20180;-86
2023/11/19 00:36:41;;;;;;;2.27;2.07;;;;;;;;;;5060122;28;20176;-84
2023/11/19 00:39:46;;;;;;;4.40;2.50;;;;;;;;;;5048645;28;20692;-85
2023/11/19 00:42:50;;;;;;;3.53;2.10;;;;;;;;;;5060129;28;20176;-85
2023/11/19 00:45:54;;;;;;;2.67;2.13;;;;;;;;;;5048595;28;20180;-85
2023/11/19 00:49:00;;;;;;;5.87;2.60;;;;;;;;;;5047861;28;20220;-84
2023/11/19 00:52:06;;;;;;;2.50;2.30;;;;;;;;;;5048312;28;20212;-84
2023/11/19 00:55:11;;;;;;;3.23;2.37;;;;;;;;;;5059615;28;20188;-85
2023/11/19 00:58:17;;;;;;;3.03;2.50;;;;;;;;;;5047706;28;20188;-85
2023/11/19 01:01:23;;;;;;;4.10;2.80;;;;;;;;;;5069465;28;20227;-86
2023/11/19 01:04:27;;;;;;;3.23;2.93;;;;;;;;;;5045030;28;20188;-85
2023/11/19 01:07:30;;;;;;;2.97;2.57;;;;;;;;;;5056610;28;20549;-86
2023/11/19 01:10:37;;;;;;;4.67;2.80;;;;;;;;;;5034011;28;20220;-86
2023/11/19 01:13:41;;;;;;;2.60;2.40;;;;;;;;;;5044997;28;20184;-86
2023/11/19 01:16:45;;;;;;;2.60;2.40;;;;;;;;;;5056389;28;20180;-86
2023/11/19 01:19:50;;;;;;;2.80;2.50;;;;;;;;;;5056184;28;20648;-86
2023/11/19 01:22:54;;;;;;;3.40;2.60;;;;;;;;;;5055855;28;20220;-86
2023/11/19 01:25:58;;;;;;;3.70;3.30;;;;;;;;;;5044607;28;20529;-86
2023/11/19 01:29:04;;;;;;;3.33;3.03;;;;;;;;;;5067436;28;20211;-86
2023/11/19 01:32:08;;;;;;;3.10;2.80;;;;;;;;;;5055794;28;20207;-86
2023/11/19 01:35:12;;;;;;;6.47;2.83;;;;;;;;;;5044293;28;20184;-86
2023/11/19 01:38:17;;;;;;;7.07;3.50;;;;;;;;;;5055470;28;20184;-86
2023/11/19 01:41:21;;;;;;;4.03;2.87;;;;;;;;;;5055831;28;20172;-86
2023/11/19 01:44:25;;;;;;;3.60;3.00;;;;;;;;;;5055419;28;20548;-86
2023/11/19 01:47:30;;;;;;;4.83;3.13;;;;;;;;;;5055436;28;20184;-86
2023/11/19 01:50:35;;;;;;;3.67;3.37;;;;;;;;;;5043505;28;20554;-86
2023/11/19 01:53:40;;;;;;;3.50;3.20;;;;;;;;;;5047965;28;20188;-86
2023/11/19 01:56:44;;;;;;;5.83;3.60;;;;;;;;;;5059697;28;20180;-86
2023/11/19 01:59:52;;;;;;;4.07;3.67;;;;;;;;;;5047808;28;20223;-86
2023/11/19 02:02:57;;;;;;;6.47;4.43;;;;;;;;;;5048661;28;20188;-86
2023/11/19 02:06:01;;;;;;;4.73;4.20;;;;;;;;;;5036862;28;20180;-86
2023/11/19 02:09:07;;;;;;;4.60;4.20;;;;;;;;;;5047044;28;20219;-85
2023/11/19 02:12:11;;;;;;;4.57;3.90;;;;;;;;;;5047651;28;20204;-86
2023/11/19 02:15:18;;;;;;;4.97;4.13;;;;;;;;;;5069785;28;20180;-86
2023/11/19 02:18:27;;;;;;;6.20;4.40;;;;;;;;;;5058490;28;20184;-86
2023/11/19 02:21:32;;;;;;;9.37;4.60;;;;;;;;;;5058724;28;20168;-85
2023/11/19 02:24:37;;;;;;;5.07;4.40;;;;;;;;;;5058655;28;20184;-85
2023/11/19 02:27:51;;;;;;;5.53;4.47;;;;;;;;;;5047017;28;20184;-86
2023/11/19 02:30:55;;;;;;;4.47;4.07;;;;;;;;;;5046337;28;20204;-86
2023/11/19 02:34:02;;;;;;;7.17;4.50;;;;;;;;;;5069684;28;20605;-85
2023/11/19 02:37:06;;;;;;;5.83;4.73;;;;;;;;;;5047137;28;20176;-85
2023/11/19 02:40:11;;;;;;;4.97;4.47;;;;;;;;;;5058468;28;20219;-86
2023/11/19 02:43:15;;;;;;;5.27;4.37;;;;;;;;;;5035419;28;20176;-86
2023/11/19 02:46:19;;;;;;;4.97;4.37;;;;;;;;;;5069600;28;20180;-86
2023/11/19 02:49:24;;;;;;;5.43;4.20;;;;;;;;;;5058736;28;20223;-86
2023/11/19 02:52:28;;;;;;;5.03;4.47;;;;;;;;;;5035544;28;20207;-86
2023/11/19 02:55:37;;;;;;;4.67;4.20;;;;;;;;;;5046463;28;20176;-86
2023/11/19 02:58:44;;;;;;;4.37;3.93;;;;;;;;;;5058526;28;20219;-85
2023/11/19 03:01:50;;;;;;;5.53;4.60;;;;;;;;;;5058499;28;20184;-84
2023/11/19 03:04:55;;;;;;;4.37;3.97;;;;;;;;;;5047045;28;20184;-83
2023/11/19 03:08:00;;;;;;;4.50;3.60;;;;;;;;;;5070487;28;20532;-83
2023/11/19 03:11:04;;;;;;;6.77;3.67;;;;;;;;;;5070634;28;20208;-84
2023/11/19 03:14:09;;;;;;;4.57;3.90;;;;;;;;;;5058520;28;20514;-83
2023/11/19 03:17:13;;;;;;;4.60;4.20;;;;;;;;;;5058363;28;20184;-84
2023/11/19 03:20:17;;;;;;;5.47;3.83;;;;;;;;;;5047010;28;20223;-84
2023/11/19 03:23:22;;;;;;;3.93;3.53;;;;;;;;;;5058536;28;20176;-84
2023/11/19 03:26:27;;;;;;;5.10;3.93;;;;;;;;;;5059650;28;20188;-84
2023/11/19 03:29:31;;;;;;;4.57;3.77;;;;;;;;;;5058823;28;20224;-84
2023/11/19 03:32:35;;;;;;;4.77;4.13;;;;;;;;;;5046344;28;20208;-84
2023/11/19 03:35:41;;;;;;;5.03;4.23;;;;;;;;;;5046437;28;20184;-84
2023/11/19 03:38:45;;;;;;;4.80;3.93;;;;;;;;;;5047013;28;20216;-84
2023/11/19 03:41:49;;;;;;;5.40;4.60;;;;;;;;;;5046408;28;20172;-84
2023/11/19 03:44:54;;;;;;;4.40;3.77;;;;;;;;;;5046749;28;20180;-84
2023/11/19 03:47:58;;;;;;;3.47;3.17;;;;;;;;;;5058209;28;20184;-84
2023/11/19 03:51:02;;;;;;;4.90;3.77;;;;;;;;;;5069501;28;20630;-84
2023/11/19 03:54:06;;;;;;;4.70;4.20;;;;;;;;;;5058290;28;20180;-84
2023/11/19 03:57:11;;;;;;;4.93;4.10;;;;;;;;;;5058310;28;20184;-84
2023/11/19 04:00:15;;;;;;;5.30;3.97;;;;;;;;;;5046296;28;20692;-84
2023/11/19 04:03:19;;;;;;;4.77;3.90;;;;;;;;;;5069101;28;20176;-84
2023/11/19 04:06:23;;;;;;;4.10;3.70;;;;;;;;;;5068814;28;20180;-84
2023/11/19 04:09:28;;;;;;;5.03;4.00;;;;;;;;;;5046307;28;20215;-84
2023/11/19 04:12:32;;;;;;;5.73;3.90;;;;;;;;;;5045909;28;20212;-84
2023/11/19 04:15:36;;;;;;;5.70;4.50;;;;;;;;;;5068714;28;20180;-84
2023/11/19 04:18:41;;;;;;;4.57;3.87;;;;;;;;;;5058138;28;20212;-84
2023/11/19 04:21:45;;;;;;;4.93;4.03;;;;;;;;;;5046750;28;20172;-84
2023/11/19 04:24:49;;;;;;;4.50;3.73;;;;;;;;;;5046978;28;20180;-86
2023/11/19 04:27:53;;;;;;;6.57;3.47;;;;;;;;;;5035504;28;20180;-84
2023/11/19 04:30:57;;;;;;;3.63;3.13;;;;;;;;;;5058920;28;20176;-84
2023/11/19 04:34:02;;;;;;;3.40;2.47;;;;;;;;;;5070361;28;20172;-84
2023/11/19 04:37:07;;;;;;;3.13;2.83;;;;;;;;;;5047036;28;20184;-85
2023/11/19 04:40:11;;;;;;;2.90;2.63;;;;;;;;;;5046931;28;20220;-84
2023/11/19 04:43:16;;;;;;;3.57;2.90;;;;;;;;;;5070341;28;20176;-84
2023/11/19 04:46:20;;;;;;;3.57;2.97;;;;;;;;;;5046700;28;20184;-85
2023/11/19 04:49:26;;;;;;;3.53;2.80;;;;;;;;;;5057510;28;20219;-84
2023/11/19 04:52:31;;;;;;;3.27;2.70;;;;;;;;;;5058471;28;20204;-84
2023/11/19 04:55:35;;;;;;;3.87;2.70;;;;;;;;;;5058202;28;20549;-84
2023/11/19 04:58:40;;;;;;;2.03;1.80;;;;;;;;;;5058843;28;20223;-84
2023/11/19 05:01:47;;;;;;;3.87;2.17;;;;;;;;;;5046676;28;20621;-84
2023/11/19 05:04:51;;;;;;;1.83;1.57;;;;;;;;;;5035659;28;20188;-85
2023/11/19 05:07:55;;;;;;;2.43;1.57;;;;;;;;;;5046936;28;20176;-84
2023/11/19 05:10:59;;;;;;;1.20;1.10;;;;;;;;;;5058022;28;20192;-85
2023/11/19 05:14:04;;;;;;;1.37;1.13;;;;;;;;;;5059408;28;20541;-85
2023/11/19 05:17:08;;;;;;;1.37;1.27;;;;;;;;;;5061006;28;20176;-85
2023/11/19 05:20:15;;;;;;;2.80;1.10;;;;;;;;;;5069756;28;20223;-85
2023/11/19 05:23:20;;;;;;;1.30;1.10;;;;;;;;;;5057481;28;20180;-84
2023/11/19 05:26:24;;;;;;;1.40;1.30;;;;;;;;;;5071399;28;20180;-85
2023/11/19 05:29:29;;;;;;;1.43;1.10;;;;;;;;;;5062579;28;20580;-84
2023/11/19 05:32:33;;;;;;;1.30;1.20;;;;;;;;;;5051242;28;20208;-85
2023/11/19 05:35:38;;;;;;;1.57;1.37;;;;;;;;;;5051357;28;20184;-84
2023/11/19 05:38:42;;;;;;;1.20;1.10;;;;;;;;;;5064329;28;20219;-84
2023/11/19 05:41:46;;;;;;;1.50;1.33;;;;;;;;;;5063848;28;20184;-85
2023/11/19 05:44:51;;;;;;;1.57;1.47;;;;;;;;;;5052472;28;20188;-85
2023/11/19 05:47:56;;;;;;;3.00;1.30;;;;;;;;;;5065019;28;20188;-84
2023/11/19 05:51:00;;;;;;;1.33;1.17;;;;;;;;;;5053693;28;20184;-85
2023/11/19 05:54:10;;;;;;;1.57;1.20;;;;;;;;;;5065139;28;20168;-85
2023/11/19 05:57:14;;;;;;;1.37;1.10;;;;;;;;;;5064187;28;20172;-85
2023/11/19 06:00:18;;;;;;;1.20;1.10;;;;;;;;;;5051963;28;20568;-85
2023/11/19 06:03:22;;;;;;;1.43;1.17;;;;;;;;;;5051837;28;20176;-85
2023/11/19 06:06:27;;;;;;;3.40;1.30;;;;;;;;;;5075251;28;20177;-85
2023/11/19 06:09:33;;;;;;;2.63;1.20;;;;;;;;;;5074678;28;20220;-85
2023/11/19 06:12:40;;;;;;;3.40;1.27;;;;;;;;;;5074537;28;20655;-85
2023/11/19 06:15:45;;;;;;;1.50;1.40;;;;;;;;;;5058645;28;20176;-86
2023/11/19 06:18:48;;;;;;;1.40;1.03;;;;;;;;;;5046126;28;20216;-86
2023/11/19 06:21:52;;;;;;;1.90;1.07;;;;;;;;;;5046378;28;20188;-86
2023/11/19 06:24:56;;;;;;;3.67;1.20;;;;;;;;;;5069434;28;20180;-86
2023/11/19 06:28:01;;;;;;;1.20;1.10;;;;;;;;;;5058336;28;20180;-86
2023/11/19 06:31:05;;;;;;;1.93;1.13;;;;;;;;;;5069152;28;20641;-86
2023/11/19 06:34:10;;;;;;;1.93;1.60;;;;;;;;;;5045868;28;20522;-86
2023/11/19 06:37:13;;;;;;;2.00;1.50;;;;;;;;;;5045195;28;20188;-86
2023/11/19 06:40:18;;;;;;;2.00;1.43;;;;;;;;;;5057890;28;20216;-86
2023/11/19 06:43:22;;;;;;;5.50;1.40;;;;;;;;;;5045894;28;20180;-86
2023/11/19 06:46:26;;;;;;;1.63;1.53;;;;;;;;;;5058791;28;20180;-86
2023/11/19 06:49:30;;;;;;;2.50;1.40;;;;;;;;;;5035007;28;20219;-86
2023/11/19 06:52:37;;;;;;;1.80;1.47;;;;;;;;;;5069288;28;20208;-86
2023/11/19 06:55:41;;;;;;;2.77;1.60;;;;;;;;;;5058329;28;20180;-86
2023/11/19 06:58:45;;;;;;;1.97;1.60;;;;;;;;;;5057973;28;20220;-86
2023/11/19 07:01:50;;;;;;;46.47;23.10;;;;;;;;;;5045793;28;20184;-86
2023/11/19 07:04:54;;;;;;;16.67;12.13;;;;;;;;;;5046016;28;20180;-86
2023/11/19 07:07:58;;;;;;;5.17;3.10;;;;;;;;;;5057770;28;20526;-86
2023/11/19 07:11:03;;;;;;;2.90;2.40;;;;;;;;;;5061480;28;20192;-87
2023/11/19 07:14:08;;;;;;;3.43;2.50;;;;;;;;;;5060678;28;20677;-87
2023/11/19 07:17:12;;;;;;;3.77;1.90;;;;;;;;;;5047810;28;20184;-87
2023/11/19 07:20:16;;;;;;;18.37;10.93;;;;;;;;;;5052016;28;20215;-87
2023/11/19 07:23:21;;;;;;;37.23;22.37;;;;;;;;;;5061764;28;20168;-87
2023/11/19 07:26:26;;;;;;;4.53;2.80;;;;;;;;;;5042611;28;20176;-87
2023/11/19 07:29:31;;;;;;;2.70;2.10;;;;;;;;;;5041260;28;20216;-86
2023/11/19 07:32:35;;;;;;;3.13;1.90;;;;;;;;;;5034631;28;20204;-87
2023/11/19 07:35:42;;;;;;;2.33;1.97;;;;;;;;;;5045637;28;20184;-87
2023/11/19 07:38:47;;;;;;;3.03;1.60;;;;;;;;;;5057398;28;20212;-87
2023/11/19 07:41:51;;;;;;;3.47;1.60;;;;;;;;;;5068753;28;20519;-87
2023/11/19 07:44:57;;;;;;;2.03;1.40;;;;;;;;;;5066632;28;20177;-86
2023/11/19 07:48:01;;;;;;;7.37;5.43;;;;;;;;;;5066405;28;20180;-88
2023/11/19 07:51:05;;;;;;;18.03;11.43;;;;;;;;;;5056684;28;20188;-85
2023/11/19 07:54:10;;;;;;;4.30;3.43;;;;;;;;;;5057625;28;20549;-85
2023/11/19 07:57:14;;;;;;;19.10;13.80;;;;;;;;;;5058954;28;20641;-84
2023/11/19 08:00:19;;;;;;;5.27;4.13;;;;;;;;;;5046078;28;20227;-85
2023/11/19 08:03:23;;;;;;;3.03;2.40;;;;;;;;;;5069095;28;20548;-85
2023/11/19 08:06:28;;;;;;;3.57;2.03;;;;;;;;;;5057473;28;20180;-84
2023/11/19 08:09:33;;;;;;;4.47;1.90;;;;;;;;;;5083450;22;20242;-84
2023/11/19 08:12:37;;;;;;;2.23;2.03;;;;;;;;;;5065509;28;20207;-85
2023/11/19 08:15:41;;;;;;;2.17;2.00;;;;;;;;;;5053193;28;20183;-85
2023/11/19 08:18:45;;;;;;;2.80;2.60;;;;;;;;;;5062999;28;20215;-85
2023/11/19 08:21:49;;;;;;;2.63;2.40;;;;;;;;;;5062487;28;20188;-86
2023/11/19 08:24:53;;;;;;;2.30;1.17;;;;;;;;;;5051592;28;20184;-86
2023/11/19 08:28:00;;;;;;;1.70;1.60;;;;;;;;;;5039799;28;20188;-85
2023/11/19 08:31:04;;;;;;;2.23;1.60;;;;;;;;;;5074658;28;20175;-86
2023/11/19 08:34:08;;;;;;;1.30;1.20;;;;;;;;;;5050539;28;20664;-85
2023/11/19 08:37:12;;;;;;;1.30;1.20;;;;;;;;;;5062200;28;20521;-86
2023/11/19 08:40:17;;;;;;;2.03;0.90;;;;;;;;;;5051100;28;20219;-85
2023/11/19 08:43:23;;;;;;;2.00;0.80;;;;;;;;;;5074939;28;20490;-85
2023/11/19 08:46:28;;;;;;;0.80;0.80;;;;;;;;;;5051322;28;20632;-85
2023/11/19 08:49:32;;;;;;;0.90;0.90;;;;;;;;;;5062071;28;20211;-86
2023/11/19 08:52:36;;;;;;;1.10;0.83;;;;;;;;;;5050542;28;20521;-86
2023/11/19 08:55:40;;;;;;;1.00;0.83;;;;;;;;;;5061944;28;20628;-86
2023/11/19 08:58:45;;;;;;;1.40;1.30;;;;;;;;;;5062925;28;20699;-85
2023/11/19 09:01:49;;;;;;;1.80;1.30;;;;;;;;;;5051579;28;20179;-85
2023/11/19 09:04:53;;;;;;;1.70;1.47;;;;;;;;;;5065789;28;20176;-84
2023/11/19 09:07:57;;;;;;;1.10;0.93;;;;;;;;;;5051205;28;20180;-85
2023/11/19 09:11:07;;;;;;;0.67;0.67;;;;;;;;;;5050149;28;20203;-86
2023/11/19 09:14:11;;;;;;;2.00;0.73;;;;;;;;;;5061882;28;20215;-86
2023/11/19 09:17:16;;;;;;;1.70;0.73;;;;;;;;;;5061775;28;20180;-86
2023/11/19 09:20:20;;;;;;;1.00;0.90;;;;;;;;;;5050182;28;20215;-86
2023/11/19 09:23:29;;;;;;;0.63;0.63;;;;;;;;;;5074386;28;20176;-86
2023/11/19 09:26:33;;;;;;;0.90;0.80;;;;;;;;;;5052118;28;20624;-85
2023/11/19 09:29:37;;;;;;;0.70;0.70;;;;;;;;;;5051742;28;20222;-87
2023/11/19 09:32:41;;;;;;;1.23;1.13;;;;;;;;;;5061146;28;20179;-87
2023/11/19 09:35:45;;;;;;;1.67;1.57;;;;;;;;;;5061385;28;20184;-88
2023/11/19 09:38:50;;;;;;;1.10;1.00;;;;;;;;;;5050120;28;20219;-89
2023/11/19 09:41:54;;;;;;;2.10;0.80;;;;;;;;;;5073586;28;20180;-89
2023/11/19 09:44:59;;;;;;;2.00;1.80;;;;;;;;;;5061302;28;20525;-89
2023/11/19 09:48:03;;;;;;;1.43;1.03;;;;;;;;;;5049608;28;20175;-89
2023/11/19 09:51:11;;;;;;;1.07;0.90;;;;;;;;;;5061687;28;20180;-85
2023/11/19 09:54:15;;;;;;;0.90;0.90;;;;;;;;;;5078563;28;20215;-84
2023/11/19 09:57:19;;;;;;;0.73;0.70;;;;;;;;;;5080321;28;20628;-83
2023/11/19 10:00:24;;;;;;;1.20;0.80;;;;;;;;;;5061126;28;20219;-86
2023/11/19 10:03:32;;;;;;;1.30;0.87;;;;;;;;;;5049750;28;20176;-86
2023/11/19 10:06:36;;;;;;;1.53;0.90;;;;;;;;;;5061028;28;20180;-86
2023/11/19 10:09:41;;;;;;;0.93;0.83;;;;;;;;;;5060989;28;20223;-86
2023/11/19 10:12:46;;;;;;;1.50;0.70;;;;;;;;;;5062678;28;20544;-86
2023/11/19 10:15:52;;;;;;;1.27;0.80;;;;;;;;;;5053328;28;20609;-86
2023/11/19 10:18:56;;;;;;;1.27;0.70;;;;;;;;;;5077016;28;20215;-86
2023/11/19 10:22:04;;;;;;;0.80;0.80;;;;;;;;;;5076724;28;20183;-86
2023/11/19 10:25:26;;;;;;;1.00;0.90;;;;;;;;;;5076958;28;20621;-86
2023/11/19 10:28:39;;;;;;;0.90;0.90;;;;;;;;;;5077155;28;20211;-86
2023/11/19 10:31:56;;;;;;;1.50;1.20;;;;;;;;;;5041801;28;20176;-86
2023/11/19 10:35:07;;;;;;;1.23;1.10;;;;;;;;;;5052935;28;20207;-86
2023/11/19 10:38:17;;;;;;;0.60;0.60;;;;;;;;;;5064710;28;20175;-86
2023/11/19 10:41:40;;;;;;;3.13;0.70;;;;;;;;;;5064212;28;20180;-86
2023/11/19 10:44:44;;;;;;;0.73;0.53;;;;;;;;;;5064207;28;20176;-86
2023/11/19 10:47:49;;;;;;;0.57;0.50;;;;;;;;;;5053048;28;20175;-86
2023/11/19 10:50:57;;;;;;;0.77;0.67;;;;;;;;;;5076579;28;20176;-86
2023/11/19 10:54:05;;;;;;;1.73;0.93;;;;;;;;;;5052846;28;20211;-86
2023/11/19 10:57:14;;;;;;;1.67;1.47;;;;;;;;;;5064567;28;20176;-86
2023/11/19 11:00:20;;;;;;;1.97;1.10;;;;;;;;;;5076046;28;20211;-86
2023/11/19 11:03:25;;;;;;;2.50;1.90;;;;;;;;;;5052535;28;20621;-86
2023/11/19 11:06:30;;;;;;;0.60;0.60;;;;;;;;;;5052947;28;20529;-86
2023/11/19 11:09:35;;;;;;;1.50;1.40;;;;;;;;;;5064336;28;20560;-86
2023/11/19 11:12:41;;;;;;;1.03;0.90;;;;;;;;;;5064329;28;20183;-86
2023/11/19 11:15:46;;;;;;;1.37;0.60;;;;;;;;;;5054940;28;20628;-86
2023/11/19 11:18:51;;;;;;;0.93;0.40;;;;;;;;;;5053180;28;20227;-86
2023/11/19 11:21:56;;;;;;;1.13;0.60;;;;;;;;;;5053889;28;20179;-86
2023/11/19 11:25:16;;;;;;;1.63;0.60;;;;;;;;;;5052031;28;20179;-86
2023/11/19 11:28:37;;;;;;;1.63;0.40;;;;;;;;;;5064182;28;20176;-85
2023/11/19 11:31:59;;;;;;;1.23;0.60;;;;;;;;;;5065428;28;20190;-86
2023/11/19 11:35:28;;;;;;;24.03;13.43;;;;;;;;;;5076808;28;20204;-85
2023/11/19 11:38:39;;;;;;;1.57;0.87;;;;;;;;;;5063282;28;20221;-84
2023/11/19 11:41:44;;;;;;;0.40;0.40;;;;;;;;;;5063313;28;20176;-85
2023/11/19 11:45:09;;;;;;;2.03;0.60;;;;;;;;;;5064351;28;20180;-85
2023/11/19 11:48:19;;;;;;;3.47;1.50;;;;;;;;;;5053983;28;20176;-84
2023/11/19 11:51:42;;;;;;;5.33;4.57;;;;;;;;;;5053895;28;20171;-83
2023/11/19 11:54:47;;;;;;;13.77;11.50;;;;;;;;;;5062912;28;20675;-85
2023/11/19 11:57:51;;;;;;;2.43;1.73;;;;;;;;;;5062787;28;20191;-84
2023/11/19 12:00:57;;;;;;;4.83;3.43;;;;;;;;;;5065460;28;20179;-84
2023/11/19 12:04:02;;;;;;;22.40;14.87;;;;;;;;;;5077764;28;20172;-84
2023/11/19 12:07:15;;;;;;;8.27;5.60;;;;;;;;;;5076433;28;20194;-86
2023/11/19 12:10:21;;;;;;;10.63;7.97;;;;;;;;;;5050856;28;20219;-85
2023/11/19 12:13:46;;;;;;;4.87;3.37;;;;;;;;;;5074260;28;20180;-86
2023/11/19 12:16:50;;;;;;;32.93;23.70;;;;;;;;;;5040015;28;20172;-86
2023/11/19 12:19:55;;;;;;;7.03;5.10;;;;;;;;;;5074303;28;20230;-86
2023/11/19 12:23:05;;;;;;;14.57;11.37;;;;;;;;;;5062702;28;20183;-86
2023/11/19 12:26:21;;;;;;;6.53;3.30;;;;;;;;;;5062733;28;20655;-86
2023/11/19 12:29:26;;;;;;;2.93;2.37;;;;;;;;;;5062036;28;20215;-85
2023/11/19 12:32:41;;;;;;;10.57;7.60;;;;;;;;;;5074383;28;20179;-86
2023/11/19 12:35:47;;;;;;;2.73;2.03;;;;;;;;;;5050207;28;20673;-86
2023/11/19 12:38:51;;;;;;;1.63;1.10;;;;;;;;;;5062073;28;20223;-85
2023/11/19 12:41:55;;;;;;;0.80;0.80;;;;;;;;;;5074331;28;20176;-86
2023/11/19 12:44:59;;;;;;;10.80;8.50;;;;;;;;;;5061616;28;20179;-86
2023/11/19 12:48:09;;;;;;;4.40;2.60;;;;;;;;;;5062128;28;20650;-85
2023/11/19 12:51:13;;;;;;;7.43;5.10;;;;;;;;;;5062460;28;20179;-86
2023/11/19 12:54:18;;;;;;;8.97;5.37;;;;;;;;;;5074063;28;20207;-85
2023/11/19 12:57:35;;;;;;;4.43;2.10;;;;;;;;;;5050548;28;20180;-85
2023/11/19 13:00:40;;;;;;;17.93;11.00;;;;;;;;;;5062079;28;20175;-85
2023/11/19 13:03:45;;;;;;;10.47;7.73;;;;;;;;;;5061894;28;20190;-86
2023/11/19 13:06:49;;;;;;;9.63;5.97;;;;;;;;;;5039152;28;20171;-86
2023/11/19 13:10:01;;;;;;;1.57;1.43;;;;;;;;;;5038736;28;20222;-86
2023/11/19 13:13:10;;;;;;;2.47;1.90;;;;;;;;;;5061869;28;20513;-86
2023/11/19 13:16:14;;;;;;;2.83;2.17;;;;;;;;;;5061970;28;20180;-86
2023/11/19 13:19:19;;;;;;;2.10;0.70;;;;;;;;;;5039056;28;20219;-86
2023/11/19 13:22:23;;;;;;;6.00;4.47;;;;;;;;;;5050313;28;20176;-86
2023/11/19 13:25:28;;;;;;;5.33;2.57;;;;;;;;;;5061694;28;20517;-86
2023/11/19 13:28:32;;;;;;;2.30;2.00;;;;;;;;;;5049934;28;20215;-86
2023/11/19 13:31:38;;;;;;;3.03;2.20;;;;;;;;;;5074101;28;20183;-86
2023/11/19 13:34:42;;;;;;;0.90;0.80;;;;;;;;;;5049995;28;20215;-86
2023/11/19 13:37:46;;;;;;;1.10;1.00;;;;;;;;;;5040957;28;20175;-85
2023/11/19 13:40:51;;;;;;;0.70;0.70;;;;;;;;;;5065722;28;20179;-84
2023/11/19 13:43:55;;;;;;;4.30;3.43;;;;;;;;;;5065884;28;20175;-84
2023/11/19 13:46:59;;;;;;;4.77;3.17;;;;;;;;;;5055446;28;20509;-84
2023/11/19 13:50:06;;;;;;;2.67;2.30;;;;;;;;;;5069614;28;20222;-85
2023/11/19 13:53:10;;;;;;;3.50;3.20;;;;;;;;;;5083299;28;20180;-84
2023/11/19 13:56:13;;;;;;;2.50;2.30;;;;;;;;;;5070275;28;20211;-85
2023/11/19 13:59:18;;;;;;;3.27;1.97;;;;;;;;;;5058332;28;20211;-84
2023/11/19 14:02:22;;;;;;;6.27;4.13;;;;;;;;;;5069191;28;20183;-85
2023/11/19 14:05:26;;;;;;;9.63;6.93;;;;;;;;;;5069251;28;20501;-84
2023/11/19 14:08:30;;;;;;;8.07;5.10;;;;;;;;;;5066419;28;20695;-85
2023/11/19 14:11:34;;;;;;;2.50;2.30;;;;;;;;;;5053178;28;20202;-85
2023/11/19 14:14:39;;;;;;;1.47;1.10;;;;;;;;;;5065039;28;20202;-85
2023/11/19 14:17:43;;;;;;;1.70;1.60;;;;;;;;;;5064955;28;20625;-86
2023/11/19 14:20:47;;;;;;;2.97;1.20;;;;;;;;;;5064735;28;20175;-86
2023/11/19 14:23:52;;;;;;;2.80;1.90;;;;;;;;;;5057738;28;20632;-85
2023/11/19 14:26:58;;;;;;;1.67;1.57;;;;;;;;;;5067230;28;20180;-86
2023/11/19 14:30:05;;;;;;;2.53;1.37;;;;;;;;;;5076554;28;20219;-86
2023/11/19 14:33:09;;;;;;;4.17;3.10;;;;;;;;;;5041602;28;20183;-86
2023/11/19 14:36:13;;;;;;;2.37;0.77;;;;;;;;;;5064359;28;20784;-86
2023/11/19 14:39:18;;;;;;;1.20;1.10;;;;;;;;;;5077013;28;20215;-86
2023/11/19 14:42:22;;;;;;;1.83;1.40;;;;;;;;;;5053104;28;20541;-86
2023/11/19 14:45:27;;;;;;;3.50;3.20;;;;;;;;;;5064201;28;20176;-85
2023/11/19 14:48:32;;;;;;;0.73;0.63;;;;;;;;;;5064433;28;20691;-85
2023/11/19 14:51:37;;;;;;;1.60;1.20;;;;;;;;;;5055960;28;20513;-85
2023/11/19 14:54:41;;;;;;;3.70;2.37;;;;;;;;;;5067533;28;20207;-85
2023/11/19 14:57:45;;;;;;;3.73;2.33;;;;;;;;;;5063835;28;20180;-86
2023/11/19 15:00:50;;;;;;;3.07;1.80;;;;;;;;;;5085612;22;20557;-86
2023/11/19 15:03:54;;;;;;;6.70;1.50;;;;;;;;;;5060583;28;20184;-87
2023/11/19 15:06:59;;;;;;;2.77;2.57;;;;;;;;;;5049467;28;20176;-88
2023/11/19 15:10:09;;;;;;;1.10;0.80;;;;;;;;;;5060681;28;20188;-86
2023/11/19 15:13:13;;;;;;;1.93;1.30;;;;;;;;;;5060928;28;20184;-85
2023/11/19 15:16:24;;;;;;;0.60;0.60;;;;;;;;;;5049112;28;20208;-86
2023/11/19 15:19:28;;;;;;;2.70;1.00;;;;;;;;;;5059858;28;20180;-88
2023/11/19 15:22:32;;;;;;;0.67;0.60;;;;;;;;;;5059920;28;20188;-87
2023/11/19 15:25:36;;;;;;;1.10;0.70;;;;;;;;;;5061142;28;20181;-86
2023/11/19 15:28:40;;;;;;;1.17;1.07;;;;;;;;;;5061945;28;20184;-86
2023/11/19 15:31:45;;;;;;;0.97;0.87;;;;;;;;;;5061037;28;20215;-87
2023/11/19 15:34:49;;;;;;;1.30;0.90;;;;;;;;;;5060460;28;20208;-87
2023/11/19 15:37:53;;;;;;;1.20;1.00;;;;;;;;;;5060497;28;20184;-87
2023/11/19 15:40:57;;;;;;;3.40;2.43;;;;;;;;;;5059583;28;20212;-85
2023/11/19 15:44:03;;;;;;;3.83;3.07;;;;;;;;;;5059548;28;20184;-87
2023/11/19 15:47:07;;;;;;;1.60;1.50;;;;;;;;;;5059813;28;20168;-86
2023/11/19 15:50:11;;;;;;;2.77;2.00;;;;;;;;;;5059677;28;20215;-86
2023/11/19 15:53:17;;;;;;;4.10;3.70;;;;;;;;;;5059780;28;20628;-85
2023/11/19 15:56:21;;;;;;;3.23;2.53;;;;;;;;;;5058330;28;20208;-87
2023/11/19 15:59:25;;;;;;;1.77;1.63;;;;;;;;;;5059920;28;20188;-85
2023/11/19 16:02:30;;;;;;;1.57;1.27;;;;;;;;;;5058218;28;20184;-86
2023/11/19 16:05:34;;;;;;;2.30;0.90;;;;;;;;;;5059782;28;20184;-86
2023/11/19 16:08:38;;;;;;;7.17;4.97;;;;;;;;;;5059025;28;20176;-87
2023/11/19 16:11:43;;;;;;;5.13;2.77;;;;;;;;;;5059348;28;20723;-86
2023/11/19 16:14:47;;;;;;;2.53;2.30;;;;;;;;;;5058421;28;20180;-86
2023/11/19 16:17:51;;;;;;;1.53;1.07;;;;;;;;;;5058631;28;20172;-85
2023/11/19 16:20:56;;;;;;;2.80;1.20;;;;;;;;;;5058518;28;20211;-86
2023/11/19 16:24:04;;;;;;;1.47;0.80;;;;;;;;;;5057612;28;20184;-86
2023/11/19 16:27:09;;;;;;;2.47;1.10;;;;;;;;;;5046560;28;20176;-86
2023/11/19 16:30:13;;;;;;;3.20;1.23;;;;;;;;;;5058664;28;20216;-86
2023/11/19 16:33:18;;;;;;;4.43;4.03;;;;;;;;;;5035644;28;20180;-85
2023/11/19 16:36:22;;;;;;;1.50;1.40;;;;;;;;;;5058899;28;20216;-86
2023/11/19 16:39:26;;;;;;;2.20;0.80;;;;;;;;;;5059195;28;20176;-86
2023/11/19 16:42:31;;;;;;;0.97;0.90;;;;;;;;;;5047060;28;20176;-85
2023/11/19 16:45:35;;;;;;;1.10;1.00;;;;;;;;;;5059200;28;20640;-86
2023/11/19 16:48:40;;;;;;;1.53;0.83;;;;;;;;;;5048039;28;20184;-82
2023/11/19 16:52:07;;;;;;;1.37;1.27;;;;;;;;;;5064781;28;20207;-83
2023/11/19 16:55:29;;;;;;;0.80;0.80;;;;;;;;;;5042888;28;20208;-84
2023/11/19 16:58:37;;;;;;;3.30;0.70;;;;;;;;;;5043210;28;20188;-83
2023/11/19 17:01:41;;;;;;;2.33;1.10;;;;;;;;;;5044199;28;20219;-84
2023/11/19 17:04:46;;;;;;;1.40;1.10;;;;;;;;;;5055201;28;20176;-84
2023/11/19 17:07:50;;;;;;;5.10;4.47;;;;;;;;;;5043727;28;20518;-83
2023/11/19 17:10:55;;;;;;;14.20;10.93;;;;;;;;;;5043848;28;20224;-84
2023/11/19 17:13:59;;;;;;;1.40;1.00;;;;;;;;;;5056800;28;20625;-84
2023/11/19 17:17:04;;;;;;;1.37;0.80;;;;;;;;;;5068921;28;20211;-84
2023/11/19 17:20:08;;;;;;;1.70;0.90;;;;;;;;;;5044063;28;20184;-84
2023/11/19 17:23:13;;;;;;;2.07;1.00;;;;;;;;;;5056397;28;20184;-84
2023/11/19 17:26:17;;;;;;;3.10;1.80;;;;;;;;;;5067370;28;20176;-84
2023/11/19 17:29:21;;;;;;;5.10;2.47;;;;;;;;;;5056271;28;20171;-84
2023/11/19 17:32:25;;;;;;;1.30;1.20;;;;;;;;;;5055207;28;20176;-83
2023/11/19 17:35:30;;;;;;;18.67;9.90;;;;;;;;;;5066270;28;20208;-83
2023/11/19 17:38:34;;;;;;;2.60;1.93;;;;;;;;;;5055518;28;20172;-84
2023/11/19 17:41:39;;;;;;;8.03;7.13;;;;;;;;;;5055152;28;20215;-83
2023/11/19 17:44:43;;;;;;;7.53;6.73;;;;;;;;;;5055101;28;20168;-84
2023/11/19 17:47:49;;;;;;;2.17;1.97;;;;;;;;;;5054200;28;20172;-84
2023/11/19 17:50:56;;;;;;;2.30;1.10;;;;;;;;;;5043384;28;20215;-83
2023/11/19 17:54:00;;;;;;;1.43;0.70;;;;;;;;;;5053160;28;20184;-84
2023/11/19 17:57:05;;;;;;;1.23;1.13;;;;;;;;;;5050632;28;20669;-86
2023/11/19 18:00:16;;;;;;;2.43;2.23;;;;;;;;;;5057795;28;20228;-86
2023/11/19 18:03:20;;;;;;;3.27;2.80;;;;;;;;;;5057432;28;20665;-86
2023/11/19 18:06:24;;;;;;;0.77;0.70;;;;;;;;;;5057857;28;20184;-86
2023/11/19 18:09:29;;;;;;;1.00;0.90;;;;;;;;;;5046128;28;20180;-87
2023/11/19 18:12:33;;;;;;;1.17;1.07;;;;;;;;;;5057738;28;20180;-87
2023/11/19 18:15:37;;;;;;;0.90;0.60;;;;;;;;;;5057684;28;20212;-86
2023/11/19 18:18:41;;;;;;;2.73;1.00;;;;;;;;;;5058157;28;20176;-86
2023/11/19 18:21:46;;;;;;;1.77;0.73;;;;;;;;;;5057730;28;20220;-87
2023/11/19 18:24:50;;;;;;;2.63;0.77;;;;;;;;;;5047542;28;20185;-84
2023/11/19 18:27:54;;;;;;;1.90;0.90;;;;;;;;;;5059212;28;20176;-85
2023/11/19 18:30:58;;;;;;;1.00;0.77;;;;;;;;;;5058584;28;20220;-84